createdAt,value
2019-02-18T00:00:13.915Z,34.70
2019-02-18T00:02:44.109Z,35.30
2019-02-18T00:05:12.602Z,34.83
2019-02-18T00:07:40.326Z,34.13
2019-02-18T00:10:07.409Z,33.37
2019-02-18T00:12:34.687Z,35.33
2019-02-18T00:15:02.520Z,33.97
2019-02-18T00:17:30.541Z,32.37
2019-02-18T00:19:57.613Z,34.60
2019-02-18T00:22:24.879Z,36.97
2019-02-18T00:24:53.040Z,34.70
2019-02-18T00:27:20.125Z,34.23
2019-02-18T00:29:48.109Z,33.27
2019-02-18T00:32:15.202Z,32.70
2019-02-18T00:34:42.771Z,32.57
2019-02-18T00:37:09.842Z,33.07
2019-02-18T00:39:37.057Z,35.47
2019-02-18T00:42:04.899Z,33.70
2019-02-18T00:44:33.692Z,33.37
2019-02-18T00:47:01.166Z,33.90
2019-02-18T00:49:28.593Z,32.97
2019-02-18T00:51:55.668Z,34.77
2019-02-18T00:54:23.107Z,32.90
2019-02-18T00:56:51.071Z,34.87
2019-02-18T00:59:18.833Z,33.67
2019-02-18T01:01:46.902Z,36.30
2019-02-18T01:04:14.342Z,36.90
2019-02-18T01:06:42.027Z,33.17
2019-02-18T01:09:11.835Z,33.63
2019-02-18T01:11:39.600Z,35.63
2019-02-18T01:14:07.804Z,32.93
2019-02-18T01:16:34.880Z,33.53
2019-02-18T01:19:02.478Z,33.50
2019-02-18T01:21:30.174Z,33.30
2019-02-18T01:23:57.602Z,34.70
2019-02-18T01:26:25.030Z,34.90
2019-02-18T01:28:52.080Z,31.87
2019-02-18T01:31:19.197Z,33.43
2019-02-18T01:33:46.277Z,33.03
2019-02-18T01:36:14.460Z,32.80
2019-02-18T01:38:41.532Z,30.50
2019-02-18T01:41:08.956Z,32.33
2019-02-18T01:43:37.827Z,32.73
2019-02-18T01:46:05.079Z,34.27
2019-02-18T01:48:33.201Z,34.30
2019-02-18T01:51:00.298Z,32.50
2019-02-18T01:53:28.461Z,31.87
2019-02-18T01:55:55.550Z,31.27
2019-02-18T01:58:22.626Z,31.33
2019-02-18T02:00:50.471Z,31.90
2019-02-18T02:03:18.233Z,33.80
2019-02-18T02:05:46.004Z,32.20
2019-02-18T02:08:13.814Z,29.73
2019-02-18T02:10:41.274Z,29.83
2019-02-18T02:13:37.450Z,31.63
2019-02-18T02:16:10.154Z,29.87
2019-02-18T02:18:38.409Z,29.97
2019-02-18T02:21:06.898Z,30.40
2019-02-18T02:23:35.073Z,29.63
2019-02-18T02:26:02.568Z,31.70
2019-02-18T02:28:29.921Z,30.27
2019-02-18T02:31:01.039Z,28.90
2019-02-18T02:33:31.347Z,28.00
2019-02-18T02:35:58.947Z,29.10
2019-02-18T02:38:26.668Z,30.37
2019-02-18T02:40:54.745Z,28.97
2019-02-18T02:43:22.451Z,32.83
2019-02-18T02:45:50.470Z,32.70
2019-02-18T02:48:18.855Z,28.83
2019-02-18T02:50:46.516Z,31.87
2019-02-18T02:53:14.275Z,31.80
2019-02-18T02:55:41.643Z,31.20
2019-02-18T02:58:09.051Z,30.30
2019-02-18T03:00:37.179Z,30.40
2019-02-18T03:03:04.618Z,29.67
2019-02-18T03:05:32.274Z,31.53
2019-02-18T03:08:00.039Z,29.33
2019-02-18T03:10:27.238Z,31.80
2019-02-18T03:12:54.656Z,30.90
2019-02-18T03:15:23.842Z,28.40
2019-02-18T03:17:51.606Z,29.63
2019-02-18T03:20:18.974Z,28.50
2019-02-18T03:22:46.041Z,30.67
2019-02-18T03:25:16.274Z,29.90
2019-02-18T03:27:45.427Z,28.53
2019-02-18T03:30:49.696Z,27.90
2019-02-18T03:33:21.095Z,27.70
2019-02-18T03:35:48.863Z,27.37
2019-02-18T03:38:16.326Z,27.60
2019-02-18T03:40:43.684Z,27.67
2019-02-18T03:43:11.330Z,28.00
2019-02-18T03:45:38.422Z,28.93
2019-02-18T03:48:05.472Z,26.47
2019-02-18T03:50:32.515Z,25.03
2019-02-18T03:52:59.899Z,27.33
2019-02-18T03:55:27.289Z,27.43
2019-02-18T03:57:54.473Z,27.17
2019-02-18T04:00:21.797Z,27.33
2019-02-18T04:02:48.863Z,27.67
2019-02-18T04:05:16.202Z,28.60
2019-02-18T04:07:43.957Z,28.50
2019-02-18T04:10:11.413Z,28.57
2019-02-18T04:12:38.579Z,28.00
2019-02-18T04:15:08.238Z,25.63
2019-02-18T04:17:37.065Z,27.27
2019-02-18T04:20:04.730Z,25.90
2019-02-18T04:22:32.697Z,27.30
2019-02-18T04:25:00.347Z,25.20
2019-02-18T04:27:27.713Z,26.10
2019-02-18T04:29:55.066Z,28.07
2019-02-18T04:32:22.932Z,26.17
2019-02-18T04:34:50.706Z,27.23
2019-02-18T04:37:19.176Z,27.40
2019-02-18T04:39:47.066Z,27.33
2019-02-18T04:42:16.243Z,27.03
2019-02-18T04:44:44.107Z,26.07
2019-02-18T04:47:11.461Z,27.40
2019-02-18T04:49:38.852Z,26.57
2019-02-18T04:52:07.607Z,28.53
2019-02-18T04:54:34.973Z,25.13
2019-02-18T04:57:02.314Z,26.27
2019-02-18T04:59:29.971Z,27.80
2019-02-18T05:01:57.009Z,28.60
2019-02-18T05:04:24.093Z,32.17
2019-02-18T05:06:52.391Z,28.00
2019-02-18T05:09:19.435Z,27.70
2019-02-18T05:11:47.411Z,25.20
2019-02-18T05:14:14.504Z,27.90
2019-02-18T05:16:41.573Z,27.70
2019-02-18T05:19:10.465Z,27.93
2019-02-18T05:21:38.630Z,27.17
2019-02-18T05:24:05.823Z,27.90
2019-02-18T05:26:33.268Z,25.90
2019-02-18T05:29:00.463Z,27.00
2019-02-18T05:31:29.301Z,26.73
2019-02-18T05:33:56.380Z,26.53
2019-02-18T05:36:23.442Z,29.43
2019-02-18T05:38:50.612Z,30.50
2019-02-18T05:41:17.644Z,39.40
2019-02-18T05:43:44.726Z,33.97
2019-02-18T05:46:12.059Z,32.60
2019-02-18T05:48:39.518Z,28.87
2019-02-18T05:51:06.972Z,26.23
2019-02-18T05:53:35.867Z,27.60
2019-02-18T05:56:03.244Z,27.63
2019-02-18T05:58:30.390Z,27.07
2019-02-18T06:00:59.357Z,26.57
2019-02-18T06:03:26.439Z,26.43
2019-02-18T06:05:53.499Z,25.50
2019-02-18T06:08:21.225Z,29.43
2019-02-18T06:10:48.531Z,27.80
2019-02-18T06:13:15.663Z,30.23
2019-02-18T06:15:42.768Z,28.80
2019-02-18T06:18:09.796Z,27.57
2019-02-18T06:20:36.874Z,28.93
2019-02-18T06:23:03.966Z,29.20
2019-02-18T06:25:31.439Z,29.53
2019-02-18T06:27:58.478Z,27.53
2019-02-18T06:30:25.556Z,29.07
2019-02-18T06:32:52.612Z,26.47
2019-02-18T06:35:19.696Z,25.70
2019-02-18T06:37:47.854Z,27.37
2019-02-18T06:40:14.906Z,25.00
2019-02-18T06:42:41.988Z,26.03
2019-02-18T06:45:35.097Z,26.63
2019-02-18T06:48:32.085Z,27.17
2019-02-18T06:50:59.797Z,26.57
2019-02-18T06:53:27.251Z,27.57
2019-02-18T06:55:54.917Z,26.87
2019-02-18T06:58:49.099Z,26.17
2019-02-18T07:01:29.355Z,26.90
2019-02-18T07:04:13.225Z,26.20
2019-02-18T07:07:09.944Z,25.23
2019-02-18T07:10:03.305Z,26.17
2019-02-18T07:12:50.629Z,27.37
2019-02-18T07:15:18.092Z,28.07
2019-02-18T07:17:45.743Z,26.00
2019-02-18T07:20:13.117Z,25.57
2019-02-18T07:22:41.262Z,26.50
2019-02-18T07:25:09.146Z,25.27
2019-02-18T07:27:37.303Z,27.40
2019-02-18T07:30:07.182Z,25.57
2019-02-18T07:32:34.580Z,24.87
2019-02-18T07:35:01.632Z,24.53
2019-02-18T07:37:29.563Z,25.97
2019-02-18T07:40:01.499Z,25.50
2019-02-18T07:42:26.405Z,28.03
2019-02-18T07:44:53.454Z,22.80
2019-02-18T07:47:20.525Z,25.30
2019-02-18T07:49:47.906Z,26.53
2019-02-18T07:52:14.962Z,24.03
2019-02-18T07:54:42.039Z,25.23
2019-02-18T07:57:09.212Z,25.80
2019-02-18T07:59:36.262Z,23.60
2019-02-18T08:02:05.182Z,24.90
2019-02-18T08:04:36.474Z,25.67
2019-02-18T08:07:03.830Z,26.40
2019-02-18T08:09:32.005Z,26.93
2019-02-18T08:11:59.053Z,25.43
2019-02-18T08:14:26.094Z,25.43
2019-02-18T08:16:54.447Z,25.20
2019-02-18T08:19:23.281Z,27.73
2019-02-18T08:21:50.358Z,26.13
2019-02-18T08:24:17.403Z,26.23
2019-02-18T08:26:44.480Z,28.00
2019-02-18T08:29:11.523Z,26.13
2019-02-18T08:31:39.686Z,26.50
2019-02-18T08:34:06.738Z,26.37
2019-02-18T08:36:33.930Z,26.30
2019-02-18T08:39:01.040Z,26.20
2019-02-18T08:41:31.301Z,26.40
2019-02-18T08:43:59.389Z,24.67
2019-02-18T08:46:26.458Z,27.30
2019-02-18T08:48:53.507Z,26.23
2019-02-18T08:51:20.570Z,25.67
2019-02-18T08:53:47.991Z,26.20
2019-02-18T08:56:15.173Z,26.30
2019-02-18T08:58:42.693Z,25.27
2019-02-18T09:01:10.126Z,26.10
2019-02-18T09:03:41.858Z,26.73
2019-02-18T09:06:08.953Z,25.40
2019-02-18T09:08:36.371Z,24.37
2019-02-18T09:11:05.010Z,24.53
2019-02-18T09:13:32.495Z,25.83
2019-02-18T09:16:00.586Z,27.27
2019-02-18T09:18:29.066Z,25.77
2019-02-18T09:20:56.498Z,27.67
2019-02-18T09:24:02.258Z,25.60
2019-02-18T09:26:30.330Z,26.33
2019-02-18T09:29:03.752Z,25.73
2019-02-18T09:31:33.430Z,26.93
2019-02-18T09:34:01.098Z,24.50
2019-02-18T09:36:29.987Z,26.33
2019-02-18T09:38:57.183Z,27.43
2019-02-18T09:41:26.338Z,25.87
2019-02-18T09:43:54.104Z,25.03
2019-02-18T09:46:21.583Z,26.13
2019-02-18T09:48:50.035Z,24.97
2019-02-18T09:51:18.516Z,25.20
2019-02-18T09:53:45.607Z,26.60
2019-02-18T09:56:13.052Z,25.37
2019-02-18T09:58:40.089Z,24.90
2019-02-18T10:01:07.836Z,25.10
2019-02-18T10:03:35.801Z,26.20
2019-02-18T10:06:03.463Z,25.53
2019-02-18T10:08:30.882Z,24.67
2019-02-18T10:10:58.582Z,25.53
2019-02-18T10:13:26.072Z,24.10
2019-02-18T10:15:55.254Z,24.30
2019-02-18T10:18:23.710Z,25.70
2019-02-18T10:20:52.119Z,26.60
2019-02-18T10:23:19.764Z,29.60
2019-02-18T10:25:46.825Z,26.67
2019-02-18T10:28:14.155Z,24.80
2019-02-18T10:30:41.640Z,23.60
2019-02-18T10:33:08.978Z,24.93
2019-02-18T10:35:36.161Z,23.80
2019-02-18T10:38:03.779Z,25.43
2019-02-18T10:40:31.149Z,24.90
2019-02-18T10:42:58.191Z,22.10
2019-02-18T10:45:25.443Z,24.07
2019-02-18T10:47:53.663Z,23.30
2019-02-18T10:50:20.697Z,24.10
2019-02-18T10:52:47.740Z,23.33
2019-02-18T10:55:15.400Z,23.43
2019-02-18T10:57:42.741Z,22.70
2019-02-18T11:00:10.669Z,23.20
2019-02-18T11:02:38.941Z,23.00
2019-02-18T11:05:06.997Z,23.50
2019-02-18T11:07:34.213Z,25.67
2019-02-18T11:10:03.988Z,25.37
2019-02-18T11:12:32.369Z,24.03
2019-02-18T11:14:59.852Z,24.43
2019-02-18T11:17:26.918Z,25.77
2019-02-18T11:19:54.037Z,24.40
2019-02-18T11:22:21.891Z,23.60
2019-02-18T11:24:49.564Z,22.13
2019-02-18T11:27:16.592Z,24.10
2019-02-18T11:29:44.379Z,24.40
2019-02-18T11:32:12.890Z,24.50
2019-02-18T11:34:41.531Z,22.70
2019-02-18T11:37:09.601Z,21.83
2019-02-18T11:39:37.262Z,20.90
2019-02-18T11:42:04.619Z,20.90
2019-02-18T11:44:32.075Z,19.57
2019-02-18T11:46:59.450Z,21.20
2019-02-18T11:49:26.490Z,19.63
2019-02-18T11:51:54.138Z,19.17
2019-02-18T11:54:21.214Z,20.50
2019-02-18T11:56:49.238Z,19.77
2019-02-18T11:59:24.026Z,20.10
2019-02-18T12:01:46.032Z,20.13
2019-02-18T12:04:13.485Z,19.10
2019-02-18T12:06:40.830Z,18.03
2019-02-18T12:09:08.505Z,19.43
2019-02-18T12:14:05.857Z,19.10
2019-02-18T12:16:33.515Z,20.17
2019-02-18T12:19:01.487Z,17.60
2019-02-18T12:21:28.842Z,21.27
2019-02-18T12:23:56.239Z,18.10
2019-02-18T12:26:23.680Z,17.87
2019-02-18T12:28:51.518Z,18.10
2019-02-18T12:31:18.938Z,18.60
2019-02-18T12:33:46.375Z,18.17
2019-02-18T12:36:13.461Z,17.50
2019-02-18T12:38:41.155Z,17.67
2019-02-18T12:41:08.929Z,17.33
2019-02-18T12:43:36.669Z,18.80
2019-02-18T12:46:04.060Z,17.10
2019-02-18T12:48:31.477Z,17.00
2019-02-18T12:50:58.917Z,15.80
2019-02-18T12:53:25.974Z,16.10
2019-02-18T12:55:53.046Z,17.23
2019-02-18T12:58:21.216Z,17.37
2019-02-18T13:00:49.488Z,16.73
2019-02-18T13:03:16.571Z,15.93
2019-02-18T13:05:43.943Z,17.03
2019-02-18T13:08:12.793Z,15.87
2019-02-18T13:10:39.876Z,16.23
2019-02-18T13:13:07.503Z,15.60
2019-02-18T13:15:35.879Z,15.20
2019-02-18T13:20:31.400Z,14.67
2019-02-18T13:23:00.393Z,15.37
2019-02-18T13:25:29.090Z,14.97
2019-02-18T13:27:57.382Z,16.97
2019-02-18T13:30:24.453Z,16.23
2019-02-18T13:32:52.650Z,14.50
2019-02-18T13:35:21.130Z,16.87
2019-02-18T13:37:48.501Z,16.60
2019-02-18T13:40:15.895Z,19.67
2019-02-18T13:42:44.746Z,18.07
2019-02-18T13:45:12.103Z,15.77
2019-02-18T13:47:39.863Z,17.10
2019-02-18T13:50:07.387Z,15.80
2019-02-18T13:52:34.775Z,17.00
2019-02-18T13:55:02.541Z,14.40
2019-02-18T13:57:29.703Z,16.20
2019-02-18T13:59:57.055Z,16.90
2019-02-18T14:02:24.336Z,16.53
2019-02-18T14:04:51.909Z,16.17
2019-02-18T14:07:19.081Z,16.47
2019-02-18T14:09:47.225Z,16.37
2019-02-18T14:12:16.364Z,14.97
2019-02-18T14:14:43.325Z,15.07
2019-02-18T14:17:10.680Z,14.90
2019-02-18T14:19:37.879Z,13.73
2019-02-18T14:22:06.876Z,12.83
2019-02-18T14:24:33.927Z,14.03
2019-02-18T14:27:05.567Z,14.10
2019-02-18T14:29:32.631Z,14.97
2019-02-18T14:32:01.529Z,15.17
2019-02-18T14:34:29.070Z,16.13
2019-02-18T14:36:56.104Z,15.03
2019-02-18T14:39:25.195Z,13.60
2019-02-18T14:41:54.049Z,14.53
2019-02-18T14:44:21.188Z,14.83
2019-02-18T14:46:48.757Z,15.27
2019-02-18T14:49:18.778Z,16.60
2019-02-18T14:51:46.437Z,17.47
2019-02-18T14:54:15.224Z,18.23
2019-02-18T14:56:42.577Z,18.23
2019-02-18T14:59:09.939Z,16.13
2019-02-18T15:01:37.393Z,18.30
2019-02-18T15:04:05.561Z,17.23
2019-02-18T15:06:33.222Z,18.23
2019-02-18T15:09:00.885Z,15.93
2019-02-18T15:11:28.858Z,16.67
2019-02-18T15:13:56.215Z,18.73
2019-02-18T15:16:25.298Z,17.27
2019-02-18T15:18:53.413Z,16.90
2019-02-18T15:21:20.468Z,18.50
2019-02-18T15:23:47.915Z,16.83
2019-02-18T15:26:15.339Z,16.00
2019-02-18T15:28:42.482Z,16.70
2019-02-18T15:31:09.549Z,16.37
2019-02-18T15:33:37.802Z,16.40
2019-02-18T15:36:04.873Z,17.70
2019-02-18T15:38:32.026Z,18.70
2019-02-18T15:40:59.387Z,18.50
2019-02-18T15:43:26.818Z,19.57
2019-02-18T15:45:53.941Z,18.40
2019-02-18T15:48:21.501Z,19.70
2019-02-18T15:50:48.598Z,21.10
2019-02-18T15:53:16.054Z,21.70
2019-02-18T15:55:43.111Z,22.97
2019-02-18T15:58:11.502Z,23.93
2019-02-18T16:00:38.810Z,24.03
2019-02-18T16:03:06.422Z,24.57
2019-02-18T16:05:34.034Z,24.87
2019-02-18T16:08:01.692Z,23.50
2019-02-18T16:10:29.455Z,24.70
2019-02-18T16:12:56.810Z,24.97
2019-02-18T16:15:24.777Z,21.73
2019-02-18T16:17:52.135Z,21.50
2019-02-18T16:20:20.000Z,21.20
2019-02-18T16:22:47.582Z,22.33
2019-02-18T16:25:18.097Z,21.50
2019-02-18T16:27:45.548Z,25.37
2019-02-18T16:30:13.012Z,21.10
2019-02-18T16:32:40.688Z,24.57
2019-02-18T16:35:08.378Z,24.20
2019-02-18T16:37:36.122Z,24.73
2019-02-18T16:40:04.328Z,23.20
2019-02-18T16:42:33.287Z,23.80
2019-02-18T16:45:00.776Z,25.63
2019-02-18T16:47:29.411Z,27.50
2019-02-18T16:49:56.531Z,26.10
2019-02-18T16:52:24.744Z,28.73
2019-02-18T16:54:52.120Z,24.90
2019-02-18T16:57:21.285Z,24.97
2019-02-18T16:59:49.039Z,26.77
2019-02-18T17:02:16.432Z,26.67
2019-02-18T17:04:44.373Z,27.80
2019-02-18T17:07:11.761Z,26.63
2019-02-18T17:09:38.814Z,25.97
2019-02-18T17:12:05.951Z,30.10
2019-02-18T17:14:33.025Z,27.90
2019-02-18T17:17:00.073Z,28.90
2019-02-18T17:19:27.486Z,30.90
2019-02-18T17:21:55.535Z,32.27
2019-02-18T17:24:22.644Z,33.10
2019-02-18T17:26:52.089Z,34.83
2019-02-18T17:29:19.588Z,30.80
2019-02-18T17:31:48.444Z,31.13
2019-02-18T17:34:15.521Z,28.60
2019-02-18T17:36:42.971Z,27.70
2019-02-18T17:39:10.051Z,27.03
2019-02-18T17:41:37.207Z,28.07
2019-02-18T17:44:04.998Z,30.50
2019-02-18T17:46:32.357Z,31.00
2019-02-18T17:48:59.431Z,33.90
2019-02-18T17:51:27.064Z,32.50
2019-02-18T17:53:55.134Z,34.80
2019-02-18T17:56:23.208Z,35.30
2019-02-18T17:58:51.626Z,36.40
2019-02-18T18:01:19.869Z,35.03
2019-02-18T18:03:47.522Z,35.57
2019-02-18T18:06:15.043Z,35.20
2019-02-18T18:08:43.540Z,35.47
2019-02-18T18:11:11.037Z,34.90
2019-02-18T18:13:38.088Z,37.60
2019-02-18T18:16:05.156Z,34.87
2019-02-18T18:18:32.690Z,32.90
2019-02-18T18:20:59.782Z,31.30
2019-02-18T18:23:26.815Z,32.40
2019-02-18T18:25:53.862Z,32.47
2019-02-18T18:28:21.515Z,32.70
2019-02-18T18:30:50.061Z,34.93
2019-02-18T18:33:19.869Z,38.00
2019-02-18T18:35:47.444Z,35.47
2019-02-18T18:38:14.595Z,38.47
2019-02-18T18:40:41.663Z,33.57
2019-02-18T18:43:08.747Z,40.30
2019-02-18T18:45:37.458Z,35.70
2019-02-18T18:48:05.035Z,34.00
2019-02-18T18:50:32.714Z,34.27
2019-02-18T18:53:00.366Z,35.53
2019-02-18T18:55:28.003Z,33.97
2019-02-18T18:57:56.568Z,34.60
2019-02-18T19:00:23.804Z,37.67
2019-02-18T19:02:51.212Z,35.77
